sensor_id;sensor_type;location;lat;lon;timestamp;P1;durP1;ratioP1;P2;durP2;ratioP2
69034;SDS011;56091;55.756;37.412;2022-12-05T00:03:56;16.83;;;5.20;;
69034;SDS011;56091;55.756;37.412;2022-12-05T00:08:58;17.02;;;5.75;;
69034;SDS011;56091;55.756;37.412;2022-12-05T00:14:00;16.63;;;5.13;;
69034;SDS011;56091;55.756;37.412;2022-12-05T00:19:06;13.85;;;4.93;;
69034;SDS011;56091;55.756;37.412;2022-12-05T00:24:11;10.50;;;4.30;;
69034;SDS011;56091;55.756;37.412;2022-12-05T00:29:14;13.85;;;3.88;;
69034;SDS011;56091;55.756;37.412;2022-12-05T00:34:17;13.37;;;4.53;;
69034;SDS011;56091;55.756;37.412;2022-12-05T00:39:18;14.73;;;4.80;;
69034;SDS011;56091;55.756;37.412;2022-12-05T00:44:21;15.47;;;4.00;;
69034;SDS011;56091;55.756;37.412;2022-12-05T00:49:22;13.27;;;4.70;;
69034;SDS011;56091;55.756;37.412;2022-12-05T00:54:43;14.97;;;4.73;;
69034;SDS011;56091;55.756;37.412;2022-12-05T00:59:44;12.00;;;3.97;;
69034;SDS011;56091;55.756;37.412;2022-12-05T01:04:44;13.60;;;4.47;;
69034;SDS011;56091;55.756;37.412;2022-12-05T01:09:45;11.93;;;4.10;;
69034;SDS011;56091;55.756;37.412;2022-12-05T01:14:48;14.30;;;4.68;;
69034;SDS011;56091;55.756;37.412;2022-12-05T01:19:52;9.77;;;4.33;;
69034;SDS011;56091;55.756;37.412;2022-12-05T01:24:52;12.70;;;4.13;;
69034;SDS011;56091;55.756;37.412;2022-12-05T01:29:53;12.10;;;4.20;;
69034;SDS011;56091;55.756;37.412;2022-12-05T01:34:54;12.83;;;4.73;;
69034;SDS011;56091;55.756;37.412;2022-12-05T01:39:55;15.75;;;4.68;;
69034;SDS011;56091;55.756;37.412;2022-12-05T01:45:01;13.73;;;4.87;;
69034;SDS011;56091;55.756;37.412;2022-12-05T01:50:05;16.27;;;4.43;;
69034;SDS011;56091;55.756;37.412;2022-12-05T01:55:11;14.27;;;4.47;;
69034;SDS011;56091;55.756;37.412;2022-12-05T02:00:15;12.27;;;4.82;;
69034;SDS011;56091;55.756;37.412;2022-12-05T02:05:21;10.83;;;4.07;;
69034;SDS011;56091;55.756;37.412;2022-12-05T02:10:26;11.77;;;4.35;;
69034;SDS011;56091;55.756;37.412;2022-12-05T02:25:56;15.27;;;4.67;;
69034;SDS011;56091;55.756;37.412;2022-12-05T02:31:07;11.82;;;4.25;;
69034;SDS011;56091;55.756;37.412;2022-12-05T02:36:16;12.07;;;4.60;;
69034;SDS011;56091;55.756;37.412;2022-12-05T02:41:29;10.88;;;4.63;;
69034;SDS011;56091;55.756;37.412;2022-12-05T02:46:35;11.23;;;4.03;;
69034;SDS011;56091;55.756;37.412;2022-12-05T02:51:42;17.15;;;4.82;;
69034;SDS011;56091;55.756;37.412;2022-12-05T02:56:48;10.67;;;4.10;;
69034;SDS011;56091;55.756;37.412;2022-12-05T03:01:51;7.30;;;3.20;;
69034;SDS011;56091;55.756;37.412;2022-12-05T03:06:53;8.23;;;3.40;;
69034;SDS011;56091;55.756;37.412;2022-12-05T03:17:02;10.53;;;4.53;;
69034;SDS011;56091;55.756;37.412;2022-12-05T03:22:08;11.87;;;4.00;;
69034;SDS011;56091;55.756;37.412;2022-12-05T03:48:34;11.70;;;3.92;;
69034;SDS011;56091;55.756;37.412;2022-12-05T03:54:15;10.80;;;3.93;;
69034;SDS011;56091;55.756;37.412;2022-12-05T04:04:25;12.20;;;3.43;;
69034;SDS011;56091;55.756;37.412;2022-12-05T04:09:41;12.30;;;3.72;;
69034;SDS011;56091;55.756;37.412;2022-12-05T04:14:46;9.60;;;3.67;;
69034;SDS011;56091;55.756;37.412;2022-12-05T04:19:53;12.38;;;4.10;;
69034;SDS011;56091;55.756;37.412;2022-12-05T04:25:16;9.40;;;3.70;;
69034;SDS011;56091;55.756;37.412;2022-12-05T04:30:57;14.15;;;4.05;;
69034;SDS011;56091;55.756;37.412;2022-12-05T04:41:31;12.40;;;3.70;;
69034;SDS011;56091;55.756;37.412;2022-12-05T04:46:37;12.93;;;4.10;;
69034;SDS011;56091;55.756;37.412;2022-12-05T04:51:41;13.85;;;3.83;;
69034;SDS011;56091;55.756;37.412;2022-12-05T04:56:45;8.87;;;4.00;;
69034;SDS011;56091;55.756;37.412;2022-12-05T05:01:52;13.18;;;3.80;;
69034;SDS011;56091;55.756;37.412;2022-12-05T05:06:57;11.17;;;4.03;;
69034;SDS011;56091;55.756;37.412;2022-12-05T05:11:58;10.50;;;3.80;;
69034;SDS011;56091;55.756;37.412;2022-12-05T05:16:58;12.83;;;4.07;;
69034;SDS011;56091;55.756;37.412;2022-12-05T05:21:59;13.33;;;4.37;;
69034;SDS011;56091;55.756;37.412;2022-12-05T05:27:00;13.02;;;4.60;;
69034;SDS011;56091;55.756;37.412;2022-12-05T05:32:04;11.73;;;4.17;;
69034;SDS011;56091;55.756;37.412;2022-12-05T05:37:04;10.30;;;3.83;;
69034;SDS011;56091;55.756;37.412;2022-12-05T05:42:05;13.47;;;4.27;;
69034;SDS011;56091;55.756;37.412;2022-12-05T05:47:06;12.03;;;4.50;;
69034;SDS011;56091;55.756;37.412;2022-12-05T05:52:06;12.07;;;4.80;;
69034;SDS011;56091;55.756;37.412;2022-12-05T05:57:07;10.00;;;3.07;;
69034;SDS011;56091;55.756;37.412;2022-12-05T06:02:08;13.70;;;4.43;;
69034;SDS011;56091;55.756;37.412;2022-12-05T06:07:12;7.43;;;3.30;;
69034;SDS011;56091;55.756;37.412;2022-12-05T06:12:12;9.63;;;3.57;;
69034;SDS011;56091;55.756;37.412;2022-12-05T06:17:13;8.30;;;3.38;;
69034;SDS011;56091;55.756;37.412;2022-12-05T06:22:14;12.07;;;3.93;;
69034;SDS011;56091;55.756;37.412;2022-12-05T06:27:15;12.13;;;4.23;;
69034;SDS011;56091;55.756;37.412;2022-12-05T06:32:15;11.05;;;3.80;;
69034;SDS011;56091;55.756;37.412;2022-12-05T06:37:19;11.50;;;3.70;;
69034;SDS011;56091;55.756;37.412;2022-12-05T06:42:19;11.05;;;3.70;;
69034;SDS011;56091;55.756;37.412;2022-12-05T06:47:21;12.07;;;4.93;;
69034;SDS011;56091;55.756;37.412;2022-12-05T06:52:22;12.18;;;4.28;;
69034;SDS011;56091;55.756;37.412;2022-12-05T06:57:22;10.30;;;3.70;;
69034;SDS011;56091;55.756;37.412;2022-12-05T07:02:23;13.90;;;3.83;;
69034;SDS011;56091;55.756;37.412;2022-12-05T07:07:24;14.07;;;3.95;;
69034;SDS011;56091;55.756;37.412;2022-12-05T07:12:25;8.07;;;3.53;;
69034;SDS011;56091;55.756;37.412;2022-12-05T07:17:26;11.70;;;4.00;;
69034;SDS011;56091;55.756;37.412;2022-12-05T07:22:27;12.10;;;3.92;;
69034;SDS011;56091;55.756;37.412;2022-12-05T07:27:27;14.70;;;3.87;;
69034;SDS011;56091;55.756;37.412;2022-12-05T07:32:32;13.98;;;4.50;;
69034;SDS011;56091;55.756;37.412;2022-12-05T07:37:33;12.00;;;3.70;;
69034;SDS011;56091;55.756;37.412;2022-12-05T07:42:34;11.83;;;4.17;;
69034;SDS011;56091;55.756;37.412;2022-12-05T07:47:35;12.73;;;4.00;;
69034;SDS011;56091;55.756;37.412;2022-12-05T07:52:35;12.23;;;3.80;;
69034;SDS011;56091;55.756;37.412;2022-12-05T07:57:36;12.07;;;3.88;;
69034;SDS011;56091;55.756;37.412;2022-12-05T08:02:40;11.13;;;3.57;;
69034;SDS011;56091;55.756;37.412;2022-12-05T08:07:41;11.18;;;3.67;;
69034;SDS011;56091;55.756;37.412;2022-12-05T08:12:42;11.53;;;4.27;;
69034;SDS011;56091;55.756;37.412;2022-12-05T08:17:45;22.60;;;4.25;;
69034;SDS011;56091;55.756;37.412;2022-12-05T08:22:46;10.77;;;4.05;;
69034;SDS011;56091;55.756;37.412;2022-12-05T08:27:50;11.53;;;4.13;;
69034;SDS011;56091;55.756;37.412;2022-12-05T08:32:54;12.02;;;3.67;;
69034;SDS011;56091;55.756;37.412;2022-12-05T08:37:54;17.27;;;4.07;;
69034;SDS011;56091;55.756;37.412;2022-12-05T08:42:55;11.60;;;3.95;;
69034;SDS011;56091;55.756;37.412;2022-12-05T08:47:57;14.73;;;4.37;;
69034;SDS011;56091;55.756;37.412;2022-12-05T08:53:00;11.13;;;4.15;;
69034;SDS011;56091;55.756;37.412;2022-12-05T08:58:00;12.23;;;4.60;;
69034;SDS011;56091;55.756;37.412;2022-12-05T09:03:01;14.57;;;4.20;;
69034;SDS011;56091;55.756;37.412;2022-12-05T09:08:02;12.82;;;4.70;;
69034;SDS011;56091;55.756;37.412;2022-12-05T09:13:03;13.43;;;4.43;;
69034;SDS011;56091;55.756;37.412;2022-12-05T09:18:04;9.07;;;3.85;;
69034;SDS011;56091;55.756;37.412;2022-12-05T09:23:05;12.20;;;4.03;;
69034;SDS011;56091;55.756;37.412;2022-12-05T09:28:05;12.77;;;4.43;;
69034;SDS011;56091;55.756;37.412;2022-12-05T09:33:06;11.30;;;3.53;;
69034;SDS011;56091;55.756;37.412;2022-12-05T09:38:07;13.23;;;4.00;;
69034;SDS011;56091;55.756;37.412;2022-12-05T09:49:07;15.43;;;3.78;;
69034;SDS011;56091;55.756;37.412;2022-12-05T09:54:11;15.17;;;4.30;;
69034;SDS011;56091;55.756;37.412;2022-12-05T09:59:15;13.05;;;3.92;;
69034;SDS011;56091;55.756;37.412;2022-12-05T10:04:24;15.83;;;5.17;;
69034;SDS011;56091;55.756;37.412;2022-12-05T10:20:42;8.77;;;3.63;;
69034;SDS011;56091;55.756;37.412;2022-12-05T10:25:51;8.87;;;3.20;;
69034;SDS011;56091;55.756;37.412;2022-12-05T10:30:59;12.77;;;3.40;;
69034;SDS011;56091;55.756;37.412;2022-12-05T10:36:08;12.67;;;4.07;;
69034;SDS011;56091;55.756;37.412;2022-12-05T10:41:12;10.38;;;3.90;;
69034;SDS011;56091;55.756;37.412;2022-12-05T10:46:14;13.70;;;3.90;;
69034;SDS011;56091;55.756;37.412;2022-12-05T10:51:17;9.93;;;4.15;;
69034;SDS011;56091;55.756;37.412;2022-12-05T11:01:48;11.30;;;3.72;;
69034;SDS011;56091;55.756;37.412;2022-12-05T11:07:02;10.40;;;3.70;;
69034;SDS011;56091;55.756;37.412;2022-12-05T11:17:08;12.67;;;3.50;;
69034;SDS011;56091;55.756;37.412;2022-12-05T11:22:31;8.20;;;3.10;;
69034;SDS011;56091;55.756;37.412;2022-12-05T11:27:33;9.77;;;3.17;;
69034;SDS011;56091;55.756;37.412;2022-12-05T11:32:34;9.40;;;3.22;;
69034;SDS011;56091;55.756;37.412;2022-12-05T11:43:15;9.95;;;3.13;;
69034;SDS011;56091;55.756;37.412;2022-12-05T12:04:46;11.73;;;3.10;;
69034;SDS011;56091;55.756;37.412;2022-12-05T12:15:18;9.88;;;3.40;;
69034;SDS011;56091;55.756;37.412;2022-12-05T12:26:06;10.57;;;3.03;;
69034;SDS011;56091;55.756;37.412;2022-12-05T12:31:40;15.17;;;2.97;;
69034;SDS011;56091;55.756;37.412;2022-12-05T12:42:18;10.57;;;3.57;;
69034;SDS011;56091;55.756;37.412;2022-12-05T12:58:27;12.07;;;3.67;;
69034;SDS011;56091;55.756;37.412;2022-12-05T13:03:52;17.30;;;3.40;;
69034;SDS011;56091;55.756;37.412;2022-12-05T13:09:13;10.57;;;3.63;;
69034;SDS011;56091;55.756;37.412;2022-12-05T13:14:16;11.90;;;3.63;;
69034;SDS011;56091;55.756;37.412;2022-12-05T13:19:36;11.80;;;4.18;;
69034;SDS011;56091;55.756;37.412;2022-12-05T13:24:42;10.53;;;4.13;;
69034;SDS011;56091;55.756;37.412;2022-12-05T13:34:50;10.63;;;4.00;;
69034;SDS011;56091;55.756;37.412;2022-12-05T13:39:52;15.88;;;4.43;;
69034;SDS011;56091;55.756;37.412;2022-12-05T13:45:16;11.70;;;3.70;;
69034;SDS011;56091;55.756;37.412;2022-12-05T13:50:26;16.63;;;4.50;;
69034;SDS011;56091;55.756;37.412;2022-12-05T13:55:53;14.20;;;4.43;;
69034;SDS011;56091;55.756;37.412;2022-12-05T14:11:38;13.45;;;3.30;;
69034;SDS011;56091;55.756;37.412;2022-12-05T14:16:41;10.70;;;3.00;;
69034;SDS011;56091;55.756;37.412;2022-12-05T14:27:20;9.00;;;3.10;;
69034;SDS011;56091;55.756;37.412;2022-12-05T14:32:41;9.02;;;3.08;;
69034;SDS011;56091;55.756;37.412;2022-12-05T14:37:54;9.03;;;3.47;;
69034;SDS011;56091;55.756;37.412;2022-12-05T14:48:31;10.47;;;2.90;;
69034;SDS011;56091;55.756;37.412;2022-12-05T14:53:36;8.45;;;3.17;;
69034;SDS011;56091;55.756;37.412;2022-12-05T14:58:43;9.77;;;3.10;;
69034;SDS011;56091;55.756;37.412;2022-12-05T15:04:08;10.95;;;2.90;;
69034;SDS011;56091;55.756;37.412;2022-12-05T15:14:59;8.68;;;2.90;;
69034;SDS011;56091;55.756;37.412;2022-12-05T15:20:00;10.27;;;3.03;;
69034;SDS011;56091;55.756;37.412;2022-12-05T15:25:25;10.70;;;3.20;;
69034;SDS011;56091;55.756;37.412;2022-12-05T15:30:32;14.90;;;3.67;;
69034;SDS011;56091;55.756;37.412;2022-12-05T15:35:37;10.85;;;3.05;;
69034;SDS011;56091;55.756;37.412;2022-12-05T15:40:38;11.30;;;3.13;;
69034;SDS011;56091;55.756;37.412;2022-12-05T15:45:46;9.10;;;2.80;;
69034;SDS011;56091;55.756;37.412;2022-12-05T15:50:48;7.40;;;3.17;;
69034;SDS011;56091;55.756;37.412;2022-12-05T15:56:26;8.90;;;3.17;;
69034;SDS011;56091;55.756;37.412;2022-12-05T16:01:22;12.93;;;3.00;;
69034;SDS011;56091;55.756;37.412;2022-12-05T16:06:33;15.02;;;3.17;;
69034;SDS011;56091;55.756;37.412;2022-12-05T16:11:53;8.00;;;2.80;;
69034;SDS011;56091;55.756;37.412;2022-12-05T16:16:57;8.52;;;3.63;;
69034;SDS011;56091;55.756;37.412;2022-12-05T16:22:07;12.00;;;3.53;;
69034;SDS011;56091;55.756;37.412;2022-12-05T16:27:21;13.32;;;3.05;;
69034;SDS011;56091;55.756;37.412;2022-12-05T16:32:29;8.83;;;3.00;;
69034;SDS011;56091;55.756;37.412;2022-12-05T16:37:34;12.65;;;3.80;;
69034;SDS011;56091;55.756;37.412;2022-12-05T16:42:38;8.47;;;2.97;;
69034;SDS011;56091;55.756;37.412;2022-12-05T16:52:43;9.00;;;2.83;;
69034;SDS011;56091;55.756;37.412;2022-12-05T16:57:43;10.05;;;3.83;;
69034;SDS011;56091;55.756;37.412;2022-12-05T17:02:45;8.37;;;3.07;;
69034;SDS011;56091;55.756;37.412;2022-12-05T17:07:46;11.52;;;3.75;;
69034;SDS011;56091;55.756;37.412;2022-12-05T17:12:46;9.43;;;3.40;;
69034;SDS011;56091;55.756;37.412;2022-12-05T17:17:47;9.40;;;3.55;;
69034;SDS011;56091;55.756;37.412;2022-12-05T17:22:48;9.70;;;3.80;;
69034;SDS011;56091;55.756;37.412;2022-12-05T17:27:50;9.68;;;3.25;;
69034;SDS011;56091;55.756;37.412;2022-12-05T17:32:51;14.43;;;3.47;;
69034;SDS011;56091;55.756;37.412;2022-12-05T17:37:52;11.05;;;3.22;;
69034;SDS011;56091;55.756;37.412;2022-12-05T17:42:52;10.03;;;3.40;;
69034;SDS011;56091;55.756;37.412;2022-12-05T17:47:56;12.70;;;4.23;;
69034;SDS011;56091;55.756;37.412;2022-12-05T17:52:57;16.38;;;5.53;;
69034;SDS011;56091;55.756;37.412;2022-12-05T17:57:58;12.47;;;3.90;;
69034;SDS011;56091;55.756;37.412;2022-12-05T18:02:59;14.65;;;3.40;;
69034;SDS011;56091;55.756;37.412;2022-12-05T18:07:59;16.67;;;3.67;;
69034;SDS011;56091;55.756;37.412;2022-12-05T18:13:00;11.80;;;3.60;;
69034;SDS011;56091;55.756;37.412;2022-12-05T18:18:01;10.32;;;3.45;;
69034;SDS011;56091;55.756;37.412;2022-12-05T18:23:03;8.30;;;3.10;;
69034;SDS011;56091;55.756;37.412;2022-12-05T18:28:04;11.18;;;3.67;;
69034;SDS011;56091;55.756;37.412;2022-12-05T18:33:05;11.33;;;3.43;;
69034;SDS011;56091;55.756;37.412;2022-12-05T18:38:06;12.77;;;3.20;;
69034;SDS011;56091;55.756;37.412;2022-12-05T18:43:10;9.17;;;3.00;;
69034;SDS011;56091;55.756;37.412;2022-12-05T18:48:11;13.43;;;3.53;;
69034;SDS011;56091;55.756;37.412;2022-12-05T18:53:15;10.97;;;3.53;;
69034;SDS011;56091;55.756;37.412;2022-12-05T18:58:17;11.48;;;3.13;;
69034;SDS011;56091;55.756;37.412;2022-12-05T19:03:20;11.43;;;3.00;;
69034;SDS011;56091;55.756;37.412;2022-12-05T19:08:21;12.10;;;3.03;;
69034;SDS011;56091;55.756;37.412;2022-12-05T19:13:21;9.15;;;2.97;;
69034;SDS011;56091;55.756;37.412;2022-12-05T19:18:22;8.57;;;3.13;;
69034;SDS011;56091;55.756;37.412;2022-12-05T19:23:23;9.20;;;3.25;;
69034;SDS011;56091;55.756;37.412;2022-12-05T19:28:25;11.97;;;3.40;;
69034;SDS011;56091;55.756;37.412;2022-12-05T19:33:28;12.18;;;3.72;;
69034;SDS011;56091;55.756;37.412;2022-12-05T19:38:33;9.35;;;3.28;;
69034;SDS011;56091;55.756;37.412;2022-12-05T19:43:35;9.53;;;3.30;;
69034;SDS011;56091;55.756;37.412;2022-12-05T19:48:38;10.68;;;3.05;;
69034;SDS011;56091;55.756;37.412;2022-12-05T19:53:40;9.90;;;2.93;;
69034;SDS011;56091;55.756;37.412;2022-12-05T19:58:42;9.65;;;3.10;;
69034;SDS011;56091;55.756;37.412;2022-12-05T20:03:52;10.13;;;3.07;;
69034;SDS011;56091;55.756;37.412;2022-12-05T20:08:55;11.60;;;3.05;;
69034;SDS011;56091;55.756;37.412;2022-12-05T20:13:58;11.00;;;3.27;;
69034;SDS011;56091;55.756;37.412;2022-12-05T20:19:00;8.05;;;3.53;;
69034;SDS011;56091;55.756;37.412;2022-12-05T20:24:02;8.77;;;3.17;;
69034;SDS011;56091;55.756;37.412;2022-12-05T20:29:04;11.98;;;3.53;;
69034;SDS011;56091;55.756;37.412;2022-12-05T20:34:06;12.43;;;3.57;;
69034;SDS011;56091;55.756;37.412;2022-12-05T20:39:12;10.73;;;3.13;;
69034;SDS011;56091;55.756;37.412;2022-12-05T20:44:14;11.50;;;3.43;;
69034;SDS011;56091;55.756;37.412;2022-12-05T20:49:15;9.68;;;2.85;;
69034;SDS011;56091;55.756;37.412;2022-12-05T20:54:19;8.60;;;3.30;;
69034;SDS011;56091;55.756;37.412;2022-12-05T20:59:20;10.52;;;3.75;;
69034;SDS011;56091;55.756;37.412;2022-12-05T21:04:26;11.23;;;3.33;;
69034;SDS011;56091;55.756;37.412;2022-12-05T21:09:27;11.13;;;3.00;;
69034;SDS011;56091;55.756;37.412;2022-12-05T21:14:31;10.83;;;3.30;;
69034;SDS011;56091;55.756;37.412;2022-12-05T21:19:33;6.97;;;3.05;;
69034;SDS011;56091;55.756;37.412;2022-12-05T21:24:34;10.63;;;3.30;;
69034;SDS011;56091;55.756;37.412;2022-12-05T21:29:35;8.00;;;2.75;;
69034;SDS011;56091;55.756;37.412;2022-12-05T21:34:36;14.03;;;3.10;;
69034;SDS011;56091;55.756;37.412;2022-12-05T21:39:36;10.95;;;2.88;;
69034;SDS011;56091;55.756;37.412;2022-12-05T21:44:37;10.43;;;2.80;;
69034;SDS011;56091;55.756;37.412;2022-12-05T21:49:38;10.33;;;3.40;;
69034;SDS011;56091;55.756;37.412;2022-12-05T21:54:39;10.52;;;3.22;;
69034;SDS011;56091;55.756;37.412;2022-12-05T21:59:45;10.70;;;3.40;;
69034;SDS011;56091;55.756;37.412;2022-12-05T22:04:46;9.35;;;2.63;;
69034;SDS011;56091;55.756;37.412;2022-12-05T22:09:47;8.47;;;2.90;;
69034;SDS011;56091;55.756;37.412;2022-12-05T22:14:48;8.70;;;3.13;;
69034;SDS011;56091;55.756;37.412;2022-12-05T22:19:48;12.60;;;2.67;;
69034;SDS011;56091;55.756;37.412;2022-12-05T22:24:52;9.23;;;3.35;;
69034;SDS011;56091;55.756;37.412;2022-12-05T22:29:53;9.50;;;3.20;;
69034;SDS011;56091;55.756;37.412;2022-12-05T22:34:54;8.00;;;2.47;;
69034;SDS011;56091;55.756;37.412;2022-12-05T22:39:55;7.73;;;2.90;;
69034;SDS011;56091;55.756;37.412;2022-12-05T22:44:55;10.70;;;3.17;;
69034;SDS011;56091;55.756;37.412;2022-12-05T22:49:56;8.50;;;3.07;;
69034;SDS011;56091;55.756;37.412;2022-12-05T22:54:57;10.23;;;3.27;;
69034;SDS011;56091;55.756;37.412;2022-12-05T22:59:58;6.35;;;2.40;;
69034;SDS011;56091;55.756;37.412;2022-12-05T23:04:59;10.63;;;3.10;;
69034;SDS011;56091;55.756;37.412;2022-12-05T23:10:00;8.87;;;2.90;;
69034;SDS011;56091;55.756;37.412;2022-12-05T23:15:00;8.43;;;3.03;;
69034;SDS011;56091;55.756;37.412;2022-12-05T23:20:04;10.27;;;2.43;;
69034;SDS011;56091;55.756;37.412;2022-12-05T23:25:05;6.75;;;2.53;;
69034;SDS011;56091;55.756;37.412;2022-12-05T23:30:09;7.87;;;2.70;;
69034;SDS011;56091;55.756;37.412;2022-12-05T23:35:10;7.68;;;2.28;;
69034;SDS011;56091;55.756;37.412;2022-12-05T23:40:14;8.50;;;2.60;;
69034;SDS011;56091;55.756;37.412;2022-12-05T23:45:17;6.85;;;2.33;;
69034;SDS011;56091;55.756;37.412;2022-12-05T23:50:18;9.00;;;2.40;;
69034;SDS011;56091;55.756;37.412;2022-12-05T23:55:18;9.37;;;3.13;;
